Time;durP1;ratioP1;P1;durP2;ratioP2;P2;SDS_P1;SDS_P2;PMS_P1;PMS_P2;Temp;Humidity;BMP_temperature;BMP_pressure;BME280_temperature;BME280_humidity;BME280_pressure;Samples;Min_cycle;Max_cycle;Signal;HPM_P1;HPM_P2
2023/03/22 00:00:34;;;;;;;8.50;3.95;;;11.30;99.90;;;;;;5074665;28;20373;-87
2023/03/22 00:03:00;;;;;;;6.10;3.60;;;11.30;99.90;;;;;;5074893;28;20021;-85
2023/03/22 00:05:25;;;;;;;7.30;3.60;;;11.20;99.90;;;;;;5075040;28;20035;-85
2023/03/22 00:07:53;;;;;;;7.85;3.55;;;11.10;99.90;;;;;;5074906;28;20017;-89
2023/03/22 00:10:19;;;;;;;10.50;4.22;;;11.00;99.90;;;;;;5074049;28;20422;-87
2023/03/22 00:12:45;;;;;;;5.63;3.88;;;11.00;99.90;;;;;;5073050;28;20056;-80
2023/03/22 00:15:11;;;;;;;5.85;3.90;;;11.00;99.90;;;;;;5074545;28;20033;-81
2023/03/22 00:17:37;;;;;;;6.88;4.00;;;11.10;99.90;;;;;;5074541;28;20467;-82
2023/03/22 00:20:06;;;;;;;6.57;3.55;;;11.10;99.90;;;;;;5076285;28;20020;-82
2023/03/22 00:22:32;;;;;;;6.20;3.38;;;11.10;99.90;;;;;;5078863;28;20020;-84
2023/03/22 00:24:58;;;;;;;6.40;3.60;;;11.10;99.90;;;;;;5074290;28;20111;-82
2023/03/22 00:27:23;;;;;;;5.47;3.25;;;11.10;99.90;;;;;;5074851;28;20217;-82
2023/03/22 00:29:52;;;;;;;5.32;3.25;;;11.10;99.90;;;;;;5075127;28;20411;-82
2023/03/22 00:32:17;;;;;;;6.35;3.60;;;11.20;99.90;;;;;;5074795;28;20449;-82
2023/03/22 00:34:43;;;;;;;5.63;3.20;;;11.20;99.90;;;;;;5073984;28;20034;-82
2023/03/22 00:37:09;;;;;;;6.25;3.50;;;11.20;99.90;;;;;;5075121;28;20119;-84
2023/03/22 00:39:34;;;;;;;5.68;3.10;;;11.20;99.90;;;;;;5073997;28;20121;-85
2023/03/22 00:42:00;;;;;;;6.30;3.13;;;11.20;99.90;;;;;;5074314;28;20025;-85
2023/03/22 00:44:25;;;;;;;4.28;3.10;;;11.20;99.90;;;;;;5075597;28;20023;-86
2023/03/22 00:46:51;;;;;;;4.78;3.40;;;11.10;99.90;;;;;;5073608;28;20459;-83
2023/03/22 00:49:17;;;;;;;4.40;3.03;;;11.10;99.90;;;;;;5085930;28;20023;-80
2023/03/22 00:51:43;;;;;;;7.82;3.50;;;11.10;99.90;;;;;;5093768;28;20020;-81
2023/03/22 00:54:09;;;;;;;4.47;3.13;;;11.10;99.90;;;;;;5094354;28;20035;-82
2023/03/22 00:56:36;;;;;;;5.95;3.30;;;11.10;99.90;;;;;;5094488;28;20135;-85
2023/03/22 00:59:02;;;;;;;4.72;2.85;;;11.10;99.90;;;;;;5094339;28;20107;-85
2023/03/22 01:01:28;;;;;;;7.78;3.25;;;11.00;99.90;;;;;;5080478;28;20052;-86
2023/03/22 01:03:54;;;;;;;8.25;3.00;;;11.00;99.90;;;;;;5090672;28;20051;-80
2023/03/22 01:06:19;;;;;;;5.00;2.80;;;11.00;99.90;;;;;;5093783;28;20020;-81
2023/03/22 01:08:45;;;;;;;91.07;40.50;;;11.00;99.90;;;;;;5075051;28;20028;-82
2023/03/22 01:11:11;;;;;;;21.92;12.43;;;11.00;99.90;;;;;;5073361;28;20032;-83
2023/03/22 01:13:37;;;;;;;9.57;4.57;;;11.00;99.90;;;;;;5086392;28;20065;-81
2023/03/22 01:16:04;;;;;;;5.50;3.83;;;11.00;99.90;;;;;;5072841;28;20039;-87
2023/03/22 01:18:30;;;;;;;8.13;3.55;;;10.90;99.90;;;;;;5074289;28;20024;-84
2023/03/22 01:20:55;;;;;;;7.43;3.20;;;10.80;99.90;;;;;;5081322;28;20020;-84
2023/03/22 01:23:21;;;;;;;6.47;2.95;;;10.80;99.90;;;;;;5093582;28;20024;-82
2023/03/22 01:25:47;;;;;;;5.22;2.90;;;10.90;99.90;;;;;;5094432;28;20101;-83
2023/03/22 01:28:12;;;;;;;6.53;3.13;;;10.90;99.90;;;;;;5093780;28;20030;-82
2023/03/22 01:30:39;;;;;;;5.25;3.08;;;10.90;99.90;;;;;;5087417;28;20021;-83
2023/03/22 01:33:06;;;;;;;6.13;2.70;;;10.90;99.90;;;;;;5080922;28;20027;-81
2023/03/22 01:35:33;;;;;;;4.15;2.63;;;10.80;99.90;;;;;;5088294;28;20354;-80
2023/03/22 01:37:59;;;;;;;6.10;2.90;;;10.80;99.90;;;;;;5076394;28;20048;-81
2023/03/22 01:40:26;;;;;;;6.40;3.08;;;10.80;99.90;;;;;;5074093;28;20013;-82
2023/03/22 01:42:53;;;;;;;4.63;2.42;;;10.80;99.90;;;;;;5072523;28;20123;-80
2023/03/22 01:45:21;;;;;;;5.32;2.67;;;10.70;99.90;;;;;;5085120;28;20043;-83
2023/03/22 01:47:56;;;;;;;5.45;2.30;;;10.80;99.90;;;;;;5077434;28;20121;-83
2023/03/22 01:50:23;;;;;;;4.18;2.70;;;10.80;99.90;;;;;;5069364;28;20017;-83
2023/03/22 01:52:51;;;;;;;5.72;2.70;;;10.80;99.90;;;;;;5067817;28;20041;-83
2023/03/22 01:55:17;;;;;;;3.97;2.50;;;10.80;99.90;;;;;;5087955;28;20032;-83
2023/03/22 01:57:44;;;;;;;4.22;2.17;;;10.80;99.90;;;;;;5076172;28;20369;-84
2023/03/22 02:00:15;;;;;;;3.65;2.40;;;10.80;99.90;;;;;;5089015;28;20027;-82
2023/03/22 02:02:42;;;;;;;4.78;2.72;;;10.80;99.90;;;;;;5079971;28;20099;-83
2023/03/22 02:05:08;;;;;;;3.40;2.38;;;10.80;99.90;;;;;;5082773;28;20419;-83
2023/03/22 02:07:36;;;;;;;4.97;2.35;;;10.80;99.90;;;;;;5085920;28;20047;-86
2023/03/22 02:10:02;;;;;;;4.90;2.65;;;10.70;99.90;;;;;;5075678;28;20024;-81
2023/03/22 02:12:43;;;;;;;3.58;2.22;;;10.70;99.90;;;;;;5072158;28;20020;-79
2023/03/22 02:15:41;;;;;;;3.88;2.28;;;10.70;99.90;;;;;;5073639;28;20032;-84
2023/03/22 02:18:44;;;;;;;3.05;2.30;;;10.70;99.90;;;;;;5075122;28;20462;-84
2023/03/22 02:21:35;;;;;;;6.32;2.42;;;10.60;99.90;;;;;;5092885;28;20024;-84
2023/03/22 02:24:11;;;;;;;5.90;2.40;;;10.60;99.90;;;;;;5090727;28;20047;-82
2023/03/22 02:26:45;;;;;;;3.72;1.92;;;10.70;99.90;;;;;;5077985;28;20012;-82
2023/03/22 02:29:32;;;;;;;3.47;2.10;;;10.60;99.90;;;;;;5093183;28;20020;-82
2023/03/22 02:32:22;;;;;;;4.93;1.90;;;10.60;99.90;;;;;;5075919;28;20458;-83
2023/03/22 02:35:11;;;;;;;3.65;2.05;;;10.60;99.90;;;;;;5080234;28;20028;-82
2023/03/22 02:37:59;;;;;;;4.20;2.10;;;10.60;99.90;;;;;;5086081;28;20044;-83
2023/03/22 02:40:52;;;;;;;2.58;2.10;;;10.50;99.90;;;;;;5052529;28;20024;-82
2023/03/22 02:43:29;;;;;;;3.67;1.98;;;10.60;99.90;;;;;;5068641;28;20028;-82
2023/03/22 02:46:05;;;;;;;3.35;1.90;;;10.50;99.90;;;;;;5084153;28;20027;-84
2023/03/22 02:48:39;;;;;;;4.72;2.40;;;10.50;99.90;;;;;;5080952;28;20334;-82
2023/03/22 02:51:11;;;;;;;5.38;2.20;;;10.40;99.90;;;;;;5072683;28;20094;-84
2023/03/22 02:53:56;;;;;;;3.35;2.03;;;10.40;99.90;;;;;;5086515;28;20024;-84
2023/03/22 02:56:50;;;;;;;3.55;2.17;;;10.30;99.90;;;;;;5092785;28;20027;-85
2023/03/22 02:59:17;;;;;;;3.17;1.83;;;10.30;99.90;;;;;;5092283;28;20030;-80
2023/03/22 03:01:53;;;;;;;5.82;3.63;;;10.30;99.90;;;;;;5078995;28;20027;-81
2023/03/22 03:04:34;;;;;;;3.50;2.22;;;10.30;99.90;;;;;;5091982;28;20111;-82
2023/03/22 03:07:08;;;;;;;5.03;2.10;;;10.30;99.90;;;;;;5088596;28;20012;-83
2023/03/22 03:09:35;;;;;;;6.15;2.20;;;10.30;99.90;;;;;;5080035;28;20044;-87
2023/03/22 03:12:01;;;;;;;6.90;2.05;;;10.30;99.90;;;;;;5076822;28;20028;-82
2023/03/22 03:14:31;;;;;;;4.40;2.00;;;10.40;99.90;;;;;;5077589;28;20389;-81
2023/03/22 03:17:23;;;;;;;4.47;2.15;;;10.40;99.90;;;;;;5076978;28;20039;-83
2023/03/22 03:20:15;;;;;;;2.95;2.03;;;10.40;99.90;;;;;;5075662;28;20529;-82
2023/03/22 03:23:12;;;;;;;2.50;1.83;;;10.30;99.90;;;;;;5090980;28;20046;-82
2023/03/22 03:26:01;;;;;;;5.20;1.88;;;10.30;99.90;;;;;;5096931;28;20023;-85
2023/03/22 03:29:09;;;;;;;3.95;1.98;;;10.30;99.90;;;;;;5080808;28;20069;-83
2023/03/22 03:31:48;;;;;;;3.78;2.45;;;10.20;99.90;;;;;;5075744;28;20021;-89
2023/03/22 03:34:26;;;;;;;3.05;1.85;;;10.20;99.90;;;;;;5075967;28;20099;-81
2023/03/22 03:37:07;;;;;;;3.58;1.73;;;10.20;99.90;;;;;;5087632;28;20081;-82
2023/03/22 03:39:36;;;;;;;3.42;1.90;;;10.20;99.90;;;;;;5097338;28;20030;-81
2023/03/22 03:42:04;;;;;;;2.53;1.85;;;10.20;99.90;;;;;;5095585;28;20119;-81
2023/03/22 03:44:32;;;;;;;5.75;1.92;;;10.20;99.90;;;;;;5089128;28;20024;-81
2023/03/22 03:46:59;;;;;;;3.03;1.60;;;10.10;99.90;;;;;;5074502;28;20112;-81
2023/03/22 03:49:26;;;;;;;3.60;2.00;;;10.10;99.90;;;;;;5075557;28;20025;-80
2023/03/22 03:51:54;;;;;;;3.22;1.70;;;10.20;99.90;;;;;;5074580;28;20025;-82
2023/03/22 03:54:21;;;;;;;5.72;1.75;;;10.20;99.90;;;;;;5075401;28;20032;-82
2023/03/22 03:56:47;;;;;;;3.25;1.55;;;10.20;99.90;;;;;;5074791;28;20074;-83
2023/03/22 03:59:17;;;;;;;5.45;1.85;;;10.20;99.90;;;;;;5075105;28;20020;-83
2023/03/22 04:01:51;;;;;;;4.50;2.10;;;10.20;99.90;;;;;;5074875;28;20032;-83
2023/03/22 04:04:26;;;;;;;3.47;1.85;;;10.20;99.90;;;;;;5075295;28;20041;-83
2023/03/22 04:06:55;;;;;;;3.53;1.90;;;10.10;99.90;;;;;;5074335;28;20055;-83
2023/03/22 04:09:22;;;;;;;4.72;1.73;;;9.90;99.90;;;;;;5075912;28;20114;-82
2023/03/22 04:11:47;;;;;;;3.65;1.83;;;9.80;99.90;;;;;;5090591;28;20030;-81
2023/03/22 04:14:13;;;;;;;4.18;2.13;;;9.80;99.90;;;;;;5095702;28;20079;-81
2023/03/22 04:16:39;;;;;;;3.97;2.00;;;9.80;99.90;;;;;;5094447;28;20028;-88
2023/03/22 04:19:04;;;;;;;3.60;2.03;;;9.70;99.90;;;;;;5095738;28;20028;-82
2023/03/22 04:21:30;;;;;;;4.18;1.77;;;9.60;99.90;;;;;;5094904;28;20024;-82
2023/03/22 04:23:55;;;;;;;4.53;2.17;;;9.60;99.90;;;;;;5094546;28;20030;-82
2023/03/22 04:26:21;;;;;;;4.95;2.30;;;9.50;99.90;;;;;;5095135;28;20065;-82
2023/03/22 04:28:47;;;;;;;2.72;1.80;;;9.40;99.90;;;;;;5082518;28;20028;-83
2023/03/22 04:31:12;;;;;;;3.90;1.67;;;9.40;99.90;;;;;;5089640;28;20020;-81
2023/03/22 04:33:39;;;;;;;3.63;1.83;;;9.30;99.90;;;;;;5092722;28;20065;-87
2023/03/22 04:36:09;;;;;;;2.35;1.55;;;9.30;99.90;;;;;;5074250;28;20060;-82
2023/03/22 04:38:36;;;;;;;4.38;2.20;;;9.30;99.90;;;;;;5083798;28;20093;-82
2023/03/22 04:41:01;;;;;;;4.30;2.08;;;9.30;99.90;;;;;;5081375;28;20140;-82
2023/03/22 04:43:27;;;;;;;4.15;1.77;;;9.30;99.90;;;;;;5075241;28;20086;-81
2023/03/22 04:45:53;;;;;;;4.60;2.03;;;9.30;99.90;;;;;;5074157;28;20388;-82
2023/03/22 04:48:21;;;;;;;2.85;1.85;;;9.40;99.90;;;;;;5074122;28;20032;-82
2023/03/22 04:50:46;;;;;;;5.00;2.30;;;9.40;99.90;;;;;;5073684;28;20116;-82
2023/03/22 04:53:12;;;;;;;5.10;2.15;;;9.40;99.90;;;;;;5074106;28;20055;-82
2023/03/22 04:55:37;;;;;;;4.35;2.00;;;9.20;99.90;;;;;;5074684;28;20038;-82
2023/03/22 04:58:03;;;;;;;4.50;2.10;;;9.20;99.90;;;;;;5073488;28;20059;-83
2023/03/22 05:00:30;;;;;;;5.97;2.22;;;9.20;99.90;;;;;;5073896;28;20025;-83
2023/03/22 05:02:56;;;;;;;5.32;2.65;;;9.20;99.90;;;;;;5073587;28;20023;-82
2023/03/22 05:05:22;;;;;;;4.28;1.83;;;9.30;99.90;;;;;;5075001;28;20024;-81
2023/03/22 05:07:48;;;;;;;5.43;2.33;;;9.30;99.90;;;;;;5074739;28;20046;-83
2023/03/22 05:10:14;;;;;;;5.57;2.20;;;9.30;99.90;;;;;;5074894;28;20469;-83
2023/03/22 05:12:39;;;;;;;5.25;2.38;;;9.40;99.90;;;;;;5073545;28;20021;-86
2023/03/22 05:15:06;;;;;;;5.22;2.00;;;9.40;99.90;;;;;;5072961;28;20032;-81
2023/03/22 05:17:31;;;;;;;4.20;2.33;;;9.40;99.90;;;;;;5073464;28;20025;-81
2023/03/22 05:19:57;;;;;;;3.22;2.15;;;9.40;99.90;;;;;;5072779;28;20024;-81
2023/03/22 05:22:22;;;;;;;3.03;2.13;;;9.40;99.90;;;;;;5073320;28;20016;-81
2023/03/22 05:24:48;;;;;;;3.40;1.95;;;9.40;99.90;;;;;;5073134;28;20025;-82
2023/03/22 05:27:13;;;;;;;3.70;2.20;;;9.40;99.90;;;;;;5073987;28;20020;-82
2023/03/22 05:29:43;;;;;;;7.38;2.30;;;9.40;99.90;;;;;;5074662;28;20020;-82
2023/03/22 05:32:10;;;;;;;3.35;2.00;;;9.40;99.90;;;;;;5074580;28;20020;-81
2023/03/22 05:34:35;;;;;;;2.42;1.88;;;9.40;99.90;;;;;;5073582;28;20461;-81
2023/03/22 05:37:02;;;;;;;4.80;2.42;;;9.40;99.90;;;;;;5072952;28;20116;-82
2023/03/22 05:39:28;;;;;;;5.28;2.38;;;9.40;99.90;;;;;;5079281;28;20107;-81
2023/03/22 05:41:53;;;;;;;3.85;2.25;;;9.40;99.90;;;;;;5076876;28;20104;-82
2023/03/22 05:44:19;;;;;;;4.05;2.10;;;9.40;99.90;;;;;;5073086;28;20471;-81
2023/03/22 05:46:45;;;;;;;4.57;2.17;;;9.40;99.90;;;;;;5072264;28;20017;-93
2023/03/22 05:49:10;;;;;;;3.90;2.03;;;9.40;99.90;;;;;;5072937;28;20120;-81
2023/03/22 05:51:40;;;;;;;3.47;1.60;;;9.40;99.90;;;;;;5077528;28;20099;-82
2023/03/22 05:54:09;;;;;;;3.67;2.10;;;9.40;99.90;;;;;;5092614;28;20062;-82
2023/03/22 05:56:35;;;;;;;3.08;1.75;;;9.40;99.90;;;;;;5093083;28;20050;-82
2023/03/22 05:59:01;;;;;;;3.90;2.05;;;9.40;99.90;;;;;;5092355;28;20024;-82
2023/03/22 06:01:27;;;;;;;4.88;1.90;;;9.40;99.90;;;;;;5081992;28;20576;-83
2023/03/22 06:03:52;;;;;;;4.65;2.00;;;9.40;99.90;;;;;;5072187;28;20062;-83
2023/03/22 06:06:18;;;;;;;4.35;1.90;;;9.40;99.90;;;;;;5073092;28;20020;-83
2023/03/22 06:08:44;;;;;;;3.47;2.10;;;9.40;99.90;;;;;;5074028;28;20112;-87
2023/03/22 06:11:09;;;;;;;3.47;2.28;;;9.50;99.90;;;;;;5072715;28;20027;-82
2023/03/22 06:13:36;;;;;;;6.22;2.50;;;9.50;99.90;;;;;;5073295;28;20017;-84
2023/03/22 06:16:03;;;;;;;4.10;2.15;;;9.40;99.90;;;;;;5072584;28;20032;-82
2023/03/22 06:18:29;;;;;;;4.97;2.00;;;9.50;99.90;;;;;;5073270;28;20457;-81
2023/03/22 06:20:54;;;;;;;6.85;2.30;;;9.50;99.90;;;;;;5073519;28;20044;-84
2023/03/22 06:23:20;;;;;;;5.85;2.25;;;9.50;99.90;;;;;;5073997;28;20496;-83
2023/03/22 06:25:46;;;;;;;5.13;2.40;;;9.50;99.90;;;;;;5072691;28;20025;-88
2023/03/22 06:28:12;;;;;;;5.47;2.45;;;9.50;99.90;;;;;;5072507;28;20051;-82
2023/03/22 06:30:37;;;;;;;3.28;2.40;;;9.50;99.90;;;;;;5072819;28;20024;-80
2023/03/22 06:33:04;;;;;;;3.58;2.20;;;9.50;99.90;;;;;;5072112;28;20021;-82
2023/03/22 06:35:32;;;;;;;3.50;2.08;;;9.50;99.90;;;;;;5074224;28;20068;-80
2023/03/22 06:37:58;;;;;;;7.20;2.60;;;9.50;99.90;;;;;;5076141;28;20043;-80
2023/03/22 06:40:24;;;;;;;7.30;2.63;;;9.60;99.90;;;;;;5076352;28;20033;-80
2023/03/22 06:42:49;;;;;;;4.30;2.60;;;9.60;99.90;;;;;;5073194;28;20085;-89
2023/03/22 06:45:15;;;;;;;9.20;2.60;;;9.70;99.90;;;;;;5091833;28;20028;-84
2023/03/22 06:47:42;;;;;;;4.47;2.40;;;9.70;99.90;;;;;;5080432;28;20066;-85
2023/03/22 06:50:09;;;;;;;5.32;2.50;;;9.80;99.90;;;;;;5081360;28;20024;-81
2023/03/22 06:52:34;;;;;;;4.10;2.63;;;9.90;99.90;;;;;;5085276;28;20024;-78
2023/03/22 06:55:00;;;;;;;6.68;2.75;;;9.90;99.90;;;;;;5075618;28;20039;-84
2023/03/22 06:57:26;;;;;;;3.80;2.15;;;10.00;99.90;;;;;;5097210;28;20027;-83
2023/03/22 06:59:51;;;;;;;6.75;2.90;;;10.10;99.90;;;;;;5095724;28;20065;-83
2023/03/22 07:02:17;;;;;;;4.07;2.72;;;10.20;99.90;;;;;;5076311;28;20553;-83
2023/03/22 07:04:44;;;;;;;4.85;2.38;;;10.30;99.90;;;;;;5077392;28;20025;-86
2023/03/22 07:07:10;;;;;;;5.40;2.20;;;10.30;99.90;;;;;;5077208;28;20103;-84
2023/03/22 07:09:36;;;;;;;7.70;2.58;;;10.40;99.90;;;;;;5076688;28;20108;-83
2023/03/22 07:12:03;;;;;;;6.78;2.53;;;10.50;99.90;;;;;;5075239;28;20024;-86
2023/03/22 07:14:29;;;;;;;7.00;2.67;;;10.60;99.90;;;;;;5082582;28;20098;-86
2023/03/22 07:16:55;;;;;;;7.70;2.63;;;10.70;99.90;;;;;;5078697;28;20043;-86
2023/03/22 07:19:21;;;;;;;6.90;2.88;;;10.70;99.90;;;;;;5079882;28;20508;-80
2023/03/22 07:21:46;;;;;;;5.40;2.53;;;10.80;99.90;;;;;;5088793;28;20016;-84
2023/03/22 07:24:12;;;;;;;6.47;2.17;;;10.90;99.90;;;;;;5076268;28;20377;-82
2023/03/22 07:26:38;;;;;;;7.38;2.75;;;11.00;99.90;;;;;;5076030;28;20466;-82
2023/03/22 07:29:04;;;;;;;4.70;2.85;;;11.10;99.90;;;;;;5075353;28;20021;-82
2023/03/22 07:31:30;;;;;;;4.63;2.20;;;11.20;99.90;;;;;;5080426;28;20027;-82
2023/03/22 07:33:56;;;;;;;6.50;2.50;;;11.20;99.90;;;;;;5096499;28;20024;-83
2023/03/22 07:36:24;;;;;;;6.45;1.92;;;11.20;99.90;;;;;;5094115;28;20032;-83
2023/03/22 07:38:50;;;;;;;4.47;2.05;;;11.30;99.90;;;;;;5090806;28;20044;-81
2023/03/22 07:41:17;;;;;;;4.47;1.95;;;11.30;99.90;;;;;;5092252;28;20024;-82
2023/03/22 07:43:43;;;;;;;5.28;2.35;;;11.40;99.90;;;;;;5081205;28;20023;-82
2023/03/22 07:46:09;;;;;;;3.38;1.88;;;11.60;99.90;;;;;;5093985;28;20020;-80
2023/03/22 07:48:35;;;;;;;4.18;1.77;;;11.70;99.90;;;;;;5080077;28;20384;-82
2023/03/22 07:51:00;;;;;;;6.40;2.08;;;11.80;99.90;;;;;;5083617;28;20028;-82
2023/03/22 07:53:26;;;;;;;3.30;1.60;;;11.80;99.90;;;;;;5080360;28;20073;-82
2023/03/22 07:55:52;;;;;;;3.65;1.55;;;12.00;99.90;;;;;;5095615;28;20457;-83
2023/03/22 07:58:18;;;;;;;3.05;1.50;;;12.10;99.90;;;;;;5083704;28;20048;-82
2023/03/22 08:00:43;;;;;;;4.15;1.50;;;12.10;99.90;;;;;;5074789;28;20025;-82
2023/03/22 08:03:11;;;;;;;4.88;1.60;;;12.20;99.90;;;;;;5091529;28;20020;-83
2023/03/22 08:05:40;;;;;;;2.92;1.25;;;12.30;99.90;;;;;;5081614;28;20028;-82
2023/03/22 08:08:05;;;;;;;2.95;1.33;;;12.40;99.90;;;;;;5083654;28;20028;-82
2023/03/22 08:10:31;;;;;;;4.88;1.40;;;12.50;99.90;;;;;;5091247;28;20089;-84
2023/03/22 08:12:57;;;;;;;3.60;1.38;;;12.60;99.90;;;;;;5075192;28;20050;-83
2023/03/22 08:15:23;;;;;;;2.80;1.27;;;12.70;99.90;;;;;;5083358;28;20047;-82
2023/03/22 08:17:48;;;;;;;5.55;1.73;;;12.70;99.90;;;;;;5087465;28;20024;-83
2023/03/22 08:20:17;;;;;;;4.38;1.50;;;12.80;99.90;;;;;;5079786;28;20028;-83
2023/03/22 08:22:43;;;;;;;2.45;1.05;;;12.90;99.90;;;;;;5079285;28;20016;-80
2023/03/22 08:25:09;;;;;;;3.67;1.60;;;13.00;99.90;;;;;;5088212;28;20034;-83
2023/03/22 08:27:35;;;;;;;2.33;1.10;;;13.10;99.90;;;;;;5085862;28;20024;-82
2023/03/22 08:30:02;;;;;;;2.50;1.35;;;13.20;99.90;;;;;;5085466;28;20070;-83
2023/03/22 08:32:28;;;;;;;5.47;1.70;;;13.20;99.90;;;;;;5084214;28;20027;-83
2023/03/22 08:34:54;;;;;;;5.28;1.23;;;13.20;99.90;;;;;;5084181;28;20033;-80
2023/03/22 08:37:19;;;;;;;4.10;1.08;;;13.30;99.90;;;;;;5078561;28;20040;-84
2023/03/22 08:39:45;;;;;;;6.97;1.65;;;13.30;99.90;;;;;;5075958;28;20024;-83
2023/03/22 08:42:12;;;;;;;2.03;1.10;;;13.40;99.90;;;;;;5079134;28;20040;-85
2023/03/22 08:44:38;;;;;;;2.53;1.00;;;13.40;99.90;;;;;;5084038;28;20032;-84
2023/03/22 08:47:04;;;;;;;2.45;1.00;;;13.50;99.90;;;;;;5090462;28;20067;-83
2023/03/22 08:49:30;;;;;;;1.80;0.80;;;13.60;99.90;;;;;;5090323;28;20044;-81
2023/03/22 08:51:56;;;;;;;2.78;1.20;;;13.60;99.90;;;;;;5090819;28;20026;-83
2023/03/22 08:54:22;;;;;;;2.90;1.23;;;13.70;99.90;;;;;;5084317;28;20028;-82
2023/03/22 08:56:49;;;;;;;2.40;0.80;;;13.80;99.90;;;;;;5075426;28;20025;-83
2023/03/22 08:59:15;;;;;;;2.58;1.00;;;13.80;99.90;;;;;;5075149;28;20077;-82
2023/03/22 09:01:40;;;;;;;3.67;0.95;;;13.80;99.90;;;;;;5076655;28;20025;-81
2023/03/22 09:04:06;;;;;;;2.55;1.10;;;13.70;99.90;;;;;;5074676;28;20021;-81
2023/03/22 09:06:32;;;;;;;1.38;0.93;;;13.70;99.90;;;;;;5076375;28;20031;-81
2023/03/22 09:08:58;;;;;;;4.65;0.98;;;13.70;99.90;;;;;;5073403;28;20028;-84
2023/03/22 09:11:24;;;;;;;0.93;0.75;;;13.80;99.90;;;;;;5080326;28;20416;-81
2023/03/22 09:13:50;;;;;;;2.85;0.80;;;13.80;99.90;;;;;;5076280;28;20361;-79
2023/03/22 09:16:17;;;;;;;1.10;0.50;;;13.90;99.90;;;;;;5083619;28;20032;-81
2023/03/22 09:18:43;;;;;;;2.60;0.70;;;14.00;99.90;;;;;;5075277;28;20086;-80
2023/03/22 09:21:10;;;;;;;1.25;0.77;;;14.00;99.90;;;;;;5076133;28;20114;-82
2023/03/22 09:23:36;;;;;;;1.88;0.70;;;14.00;99.90;;;;;;5087875;28;20025;-78
2023/03/22 09:26:05;;;;;;;1.25;0.60;;;14.00;99.90;;;;;;5082067;28;20063;-83
2023/03/22 09:28:31;;;;;;;3.25;0.55;;;14.10;99.90;;;;;;5080366;28;20441;-83
2023/03/22 09:31:03;;;;;;;3.70;1.00;;;14.10;99.90;;;;;;5078947;28;20020;-80
2023/03/22 09:33:28;;;;;;;3.28;0.98;;;14.10;99.90;;;;;;5086762;28;20081;-83
2023/03/22 09:35:55;;;;;;;2.50;0.70;;;14.30;99.90;;;;;;5075464;28;20036;-83
2023/03/22 09:38:21;;;;;;;1.58;0.60;;;14.30;99.90;;;;;;5082874;28;20044;-82
2023/03/22 09:41:26;;;;;;;1.60;0.50;;;14.40;99.90;;;;;;5080255;28;20084;-82
2023/03/22 09:43:59;;;;;;;0.68;0.43;;;14.50;99.90;;;;;;5067118;28;20380;-83
2023/03/22 09:46:36;;;;;;;2.47;0.60;;;14.60;99.90;;;;;;5082965;28;20024;-81
2023/03/22 09:49:11;;;;;;;1.50;0.50;;;14.60;99.90;;;;;;5083041;28;20040;-82
2023/03/22 09:51:49;;;;;;;2.33;0.40;;;14.60;99.90;;;;;;5060022;28;20020;-81
2023/03/22 09:54:24;;;;;;;1.00;0.52;;;14.70;99.90;;;;;;5091021;28;20073;-82
2023/03/22 09:57:09;;;;;;;2.25;0.45;;;14.70;99.90;;;;;;5079520;28;20457;-82
2023/03/22 09:59:51;;;;;;;1.23;0.47;;;14.70;99.90;;;;;;5076135;28;20510;-82
2023/03/22 10:02:48;;;;;;;1.95;0.50;;;14.80;99.90;;;;;;5084930;28;20016;-83
2023/03/22 10:05:52;;;;;;;2.50;0.50;;;14.80;99.90;;;;;;5090242;28;20024;-83
2023/03/22 10:08:29;;;;;;;0.60;0.40;;;14.90;99.90;;;;;;5080073;28;20357;-84
2023/03/22 10:10:56;;;;;;;3.13;0.50;;;14.90;99.90;;;;;;5078730;28;20162;-82
2023/03/22 10:13:28;;;;;;;0.68;0.40;;;15.00;99.90;;;;;;5085896;28;20020;-83
2023/03/22 10:15:58;;;;;;;2.53;0.57;;;15.00;99.90;;;;;;5086651;28;20029;-84
2023/03/22 10:18:25;;;;;;;1.90;0.40;;;15.10;99.90;;;;;;5072612;28;20469;-82
2023/03/22 10:20:51;;;;;;;1.15;0.50;;;15.10;99.90;;;;;;5087505;28;20029;-84
2023/03/22 10:23:24;;;;;;;3.20;0.40;;;15.30;99.90;;;;;;5076620;28;20020;-83
2023/03/22 10:25:51;;;;;;;3.95;0.30;;;15.30;99.90;;;;;;5087530;28;20020;-83
2023/03/22 10:28:25;;;;;;;0.60;0.22;;;15.40;99.90;;;;;;5081352;28;20050;-84
2023/03/22 10:30:55;;;;;;;0.68;0.43;;;15.50;99.90;;;;;;5072864;28;20465;-85
2023/03/22 10:33:48;;;;;;;0.38;0.28;;;15.50;99.90;;;;;;5088035;28;20028;-85
2023/03/22 10:36:16;;;;;;;4.13;0.40;;;15.60;99.90;;;;;;5083266;28;20218;-83
2023/03/22 10:38:53;;;;;;;1.88;0.55;;;15.50;99.90;;;;;;5081696;28;20049;-86
2023/03/22 10:41:21;;;;;;;0.35;0.28;;;15.60;99.90;;;;;;5091106;28;20043;-85
2023/03/22 10:43:51;;;;;;;0.85;0.50;;;15.60;99.90;;;;;;5092637;28;20341;-84
2023/03/22 10:46:23;;;;;;;1.42;0.40;;;15.70;99.90;;;;;;5093200;28;20028;-84
2023/03/22 10:48:52;;;;;;;1.83;0.50;;;15.70;99.90;;;;;;5081125;28;20021;-84
2023/03/22 10:51:31;;;;;;;3.35;0.50;;;15.80;99.90;;;;;;5074013;28;20050;-84
2023/03/22 10:53:58;;;;;;;1.10;0.40;;;15.80;99.90;;;;;;5080694;28;20027;-87
2023/03/22 10:56:24;;;;;;;1.58;0.50;;;15.90;99.90;;;;;;5083148;28;20032;-85
2023/03/22 10:58:50;;;;;;;0.93;0.32;;;15.90;99.90;;;;;;5079561;28;20342;-85
2023/03/22 11:01:30;;;;;;;0.73;0.50;;;15.90;99.90;;;;;;5075379;28;20020;-85
2023/03/22 11:04:04;;;;;;;1.23;0.47;;;16.00;99.90;;;;;;5078124;28;20020;-85
2023/03/22 11:06:36;;;;;;;1.80;0.50;;;16.10;99.90;;;;;;5081758;28;20025;-85
2023/03/22 11:09:16;;;;;;;1.63;0.60;;;16.10;99.90;;;;;;5087177;28;20062;-84
2023/03/22 11:11:55;;;;;;;2.72;0.75;;;16.00;99.90;;;;;;5052214;28;20025;-84
2023/03/22 11:14:30;;;;;;;1.25;0.50;;;16.00;99.90;;;;;;5073389;28;20024;-83
2023/03/22 11:17:05;;;;;;;0.60;0.40;;;16.10;99.90;;;;;;5072377;28;20024;-88
2023/03/22 11:19:39;;;;;;;1.20;0.57;;;16.20;99.90;;;;;;5088756;28;20031;-85
2023/03/22 11:22:22;;;;;;;1.30;0.40;;;16.30;99.90;;;;;;5073773;28;20030;-85
2023/03/22 11:24:50;;;;;;;4.30;0.50;;;16.40;99.90;;;;;;5088976;28;20024;-88
2023/03/22 11:27:28;;;;;;;2.17;0.90;;;16.50;99.90;;;;;;5094601;28;20215;-86
2023/03/22 11:29:59;;;;;;;2.58;0.77;;;16.50;99.40;;;;;;5075631;28;20461;-85
2023/03/22 11:32:27;;;;;;;2.35;0.60;;;16.60;98.80;;;;;;5076329;28;20176;-86
2023/03/22 11:35:21;;;;;;;0.80;0.40;;;16.60;99.30;;;;;;5083012;28;20115;-86
2023/03/22 11:37:52;;;;;;;1.08;0.50;;;16.60;98.30;;;;;;5055545;28;20141;-86
2023/03/22 11:40:28;;;;;;;0.95;0.30;;;16.70;98.50;;;;;;5056206;28;20025;-86
2023/03/22 11:43:00;;;;;;;3.05;0.60;;;16.80;98.30;;;;;;5083952;28;20047;-86
2023/03/22 11:45:30;;;;;;;1.40;0.50;;;16.80;97.70;;;;;;5095649;28;20115;-86
2023/03/22 11:48:11;;;;;;;1.38;0.60;;;16.90;97.30;;;;;;5089454;28;20024;-87
2023/03/22 11:50:40;;;;;;;0.90;0.50;;;17.00;96.40;;;;;;5075772;28;20093;-85
2023/03/22 11:53:11;;;;;;;2.75;0.60;;;17.20;96.10;;;;;;5075054;28;20031;-87
2023/03/22 11:55:37;;;;;;;2.30;0.60;;;17.20;96.20;;;;;;5073192;28;20025;-84
2023/03/22 11:58:05;;;;;;;1.70;0.40;;;17.20;95.90;;;;;;5077094;28;20020;-88
2023/03/22 12:00:39;;;;;;;1.55;0.63;;;17.30;95.80;;;;;;5081992;28;20066;-87
2023/03/22 12:03:16;;;;;;;1.10;0.52;;;17.50;94.80;;;;;;5077601;28;20025;-85
2023/03/22 12:05:45;;;;;;;1.42;0.68;;;17.70;94.50;;;;;;5088154;28;20030;-86
2023/03/22 12:08:19;;;;;;;1.05;0.50;;;17.90;93.70;;;;;;5079018;28;20078;-88
2023/03/22 12:10:50;;;;;;;0.85;0.60;;;17.80;93.10;;;;;;5063401;28;20020;-88
2023/03/22 12:13:37;;;;;;;1.42;0.60;;;17.70;93.50;;;;;;5086376;28;20020;-88
2023/03/22 12:16:06;;;;;;;1.77;0.50;;;17.60;93.30;;;;;;5090273;28;20484;-88
2023/03/22 12:18:35;;;;;;;0.90;0.30;;;17.70;93.50;;;;;;5080940;28;20493;-85
2023/03/22 12:21:01;;;;;;;1.00;0.60;;;17.80;93.40;;;;;;5074181;28;20052;-82
2023/03/22 12:23:29;;;;;;;1.60;0.65;;;17.90;93.20;;;;;;5085370;28;20457;-82
2023/03/22 12:26:06;;;;;;;4.68;0.60;;;17.90;93.40;;;;;;5089964;28;20103;-82
2023/03/22 12:28:41;;;;;;;1.95;0.85;;;17.90;92.60;;;;;;5092211;28;20023;-84
2023/03/22 12:31:20;;;;;;;4.90;0.60;;;18.10;92.70;;;;;;5081227;28;20027;-83
2023/03/22 12:34:12;;;;;;;3.17;0.60;;;18.30;92.20;;;;;;5094218;28;20024;-85
2023/03/22 12:36:56;;;;;;;1.02;0.47;;;18.50;90.70;;;;;;5074594;28;20066;-84
2023/03/22 12:39:26;;;;;;;0.82;0.52;;;18.50;90.40;;;;;;5084430;28;20050;-84
2023/03/22 12:41:58;;;;;;;1.10;0.50;;;18.70;90.20;;;;;;5074974;28;20028;-82
2023/03/22 12:44:33;;;;;;;1.33;0.68;;;19.00;89.50;;;;;;5090664;28;20035;-83
2023/03/22 12:47:17;;;;;;;1.75;0.60;;;19.10;88.70;;;;;;5079817;28;20024;-84
2023/03/22 12:50:10;;;;;;;3.53;0.40;;;19.50;87.40;;;;;;5081498;28;20139;-84
2023/03/22 12:52:43;;;;;;;1.50;0.68;;;19.80;83.50;;;;;;5093896;28;20484;-82
2023/03/22 12:55:19;;;;;;;1.67;0.60;;;19.90;82.90;;;;;;5087307;28;20055;-83
2023/03/22 12:57:50;;;;;;;2.17;0.70;;;20.00;80.10;;;;;;5082561;28;20487;-83
2023/03/22 13:00:17;;;;;;;1.83;0.73;;;20.20;79.40;;;;;;5080838;28;20044;-84
2023/03/22 13:03:05;;;;;;;1.77;0.70;;;20.20;79.00;;;;;;5081273;28;20123;-84